Time;durP1;ratioP1;P1;durP2;ratioP2;P2;SDS_P1;SDS_P2;PMS_P1;PMS_P2;Temp;Humidity;BMP_temperature;BMP_pressure;BME280_temperature;BME280_humidity;BME280_pressure;Samples;Min_cycle;Max_cycle;Signal;HPM_P1;HPM_P2
2021/10/15 00:02:12;;;;;;;10.45;4.90;;;13.20;99.90;;;;;;5055169;28;20056;-83
2021/10/15 00:04:38;;;;;;;11.63;4.57;;;13.20;99.90;;;;;;5056484;28;20061;-83
2021/10/15 00:07:04;;;;;;;12.98;5.63;;;13.20;99.90;;;;;;5078992;23;20087;-83
2021/10/15 00:09:29;;;;;;;13.40;5.47;;;13.20;99.90;;;;;;5051176;28;20107;-84
2021/10/15 00:11:55;;;;;;;14.85;5.53;;;13.20;99.90;;;;;;5053399;28;20025;-84
2021/10/15 00:14:21;;;;;;;15.63;4.82;;;13.20;99.90;;;;;;5051892;28;20021;-84
2021/10/15 00:16:46;;;;;;;13.70;5.75;;;13.10;99.90;;;;;;5051708;28;20086;-84
2021/10/15 00:19:12;;;;;;;13.38;5.32;;;13.20;99.90;;;;;;5052484;28;20117;-84
2021/10/15 00:21:38;;;;;;;13.70;4.90;;;13.10;99.90;;;;;;5052795;28;20104;-84
2021/10/15 00:24:04;;;;;;;14.23;5.22;;;13.20;99.90;;;;;;5052872;28;20050;-84
2021/10/15 00:26:29;;;;;;;13.13;5.30;;;13.20;99.90;;;;;;5053912;28;20048;-83
2021/10/15 00:28:55;;;;;;;12.68;4.70;;;13.20;99.90;;;;;;5052801;28;20533;-83
2021/10/15 00:31:20;;;;;;;13.50;5.28;;;13.20;99.90;;;;;;5051220;28;20029;-84
2021/10/15 00:33:46;;;;;;;11.23;4.32;;;13.10;99.90;;;;;;5052664;28;20037;-84
2021/10/15 00:36:12;;;;;;;13.65;4.85;;;13.20;99.90;;;;;;5053210;28;20099;-83
2021/10/15 00:38:38;;;;;;;13.60;5.07;;;13.20;99.90;;;;;;5051956;28;20025;-84
2021/10/15 00:41:03;;;;;;;9.88;4.55;;;13.10;99.90;;;;;;5053071;28;20025;-84
2021/10/15 00:43:29;;;;;;;15.45;5.18;;;13.10;99.90;;;;;;5051773;28;20021;-84
2021/10/15 00:45:54;;;;;;;13.75;5.57;;;13.10;99.90;;;;;;5053801;28;20051;-84
2021/10/15 00:48:20;;;;;;;13.07;5.88;;;13.00;99.90;;;;;;5052379;28;20424;-84
2021/10/15 00:50:46;;;;;;;12.57;5.35;;;13.10;99.90;;;;;;5052943;28;20029;-84
2021/10/15 00:53:12;;;;;;;13.77;5.22;;;13.00;99.90;;;;;;5052338;28;20033;-84
2021/10/15 00:55:38;;;;;;;13.57;5.25;;;13.00;99.90;;;;;;5052404;28;20062;-84
2021/10/15 00:58:04;;;;;;;11.25;5.40;;;13.00;99.90;;;;;;5053260;28;20037;-84
2021/10/15 01:00:30;;;;;;;15.52;5.63;;;13.00;99.90;;;;;;5052161;28;20025;-84
2021/10/15 01:02:57;;;;;;;11.73;5.28;;;13.00;99.90;;;;;;5053385;28;20039;-83
2021/10/15 01:05:24;;;;;;;11.50;4.65;;;13.00;99.90;;;;;;5050690;28;20112;-84
2021/10/15 01:07:50;;;;;;;11.02;4.63;;;12.90;99.90;;;;;;5050479;28;20404;-83
2021/10/15 01:10:16;;;;;;;11.45;4.85;;;13.00;99.90;;;;;;5052675;28;20024;-84
2021/10/15 01:12:43;;;;;;;11.52;5.10;;;13.00;99.90;;;;;;5055109;28;20090;-84
2021/10/15 01:15:09;;;;;;;12.50;5.72;;;12.90;99.90;;;;;;5054056;28;20460;-84
2021/10/15 01:17:35;;;;;;;15.50;5.55;;;12.90;99.90;;;;;;5055376;28;20025;-84
2021/10/15 01:20:01;;;;;;;18.88;6.65;;;12.90;99.90;;;;;;5053410;28;20025;-84
2021/10/15 01:22:29;;;;;;;12.40;5.32;;;12.90;99.90;;;;;;5053960;28;20036;-83
2021/10/15 01:24:56;;;;;;;11.88;4.82;;;12.90;99.90;;;;;;5055356;28;20383;-83
2021/10/15 01:27:23;;;;;;;12.35;5.20;;;12.90;99.90;;;;;;5055493;28;20407;-84
2021/10/15 01:29:49;;;;;;;13.43;5.20;;;12.90;99.90;;;;;;5054870;28;20539;-84
2021/10/15 01:32:16;;;;;;;10.52;4.88;;;12.90;99.90;;;;;;5053851;28;20494;-83
2021/10/15 01:34:42;;;;;;;10.50;5.22;;;12.90;99.90;;;;;;5053950;28;20025;-83
2021/10/15 01:37:07;;;;;;;12.82;5.68;;;12.80;99.90;;;;;;5053772;28;20036;-84
2021/10/15 01:39:34;;;;;;;15.38;5.95;;;12.80;99.90;;;;;;5053076;28;20488;-84
2021/10/15 01:41:59;;;;;;;14.80;5.93;;;12.80;99.90;;;;;;5054945;28;20025;-84
2021/10/15 01:44:25;;;;;;;10.63;5.28;;;12.80;99.90;;;;;;5055181;28;20040;-83
2021/10/15 01:46:51;;;;;;;14.02;5.10;;;12.80;99.90;;;;;;5053608;28;20029;-84
2021/10/15 01:49:16;;;;;;;13.63;4.68;;;12.70;99.90;;;;;;5054791;28;20474;-84
2021/10/15 01:51:42;;;;;;;10.63;4.88;;;12.70;99.90;;;;;;5054937;28;20108;-84
2021/10/15 01:54:08;;;;;;;12.95;5.80;;;12.70;99.90;;;;;;5053376;28;20051;-84
2021/10/15 01:56:36;;;;;;;12.55;4.90;;;12.70;99.90;;;;;;5054919;28;20033;-83
2021/10/15 01:59:03;;;;;;;12.55;4.85;;;12.60;99.90;;;;;;5054621;28;20025;-84
2021/10/15 02:01:28;;;;;;;13.20;5.75;;;12.70;99.90;;;;;;5053538;28;20061;-83
2021/10/15 02:03:54;;;;;;;13.20;5.97;;;12.70;99.90;;;;;;5053673;28;20071;-84
2021/10/15 02:06:19;;;;;;;14.73;6.15;;;12.70;99.90;;;;;;5054803;28;20020;-84
2021/10/15 02:08:45;;;;;;;13.45;5.85;;;12.70;99.90;;;;;;5053301;28;20060;-84
2021/10/15 02:11:11;;;;;;;13.60;6.13;;;12.60;99.90;;;;;;5053528;28;20025;-84
2021/10/15 02:13:37;;;;;;;15.18;7.35;;;12.60;99.90;;;;;;5054949;28;20083;-84
2021/10/15 02:16:03;;;;;;;13.77;7.25;;;12.60;99.90;;;;;;5053176;28;20029;-84
2021/10/15 02:18:28;;;;;;;15.70;6.32;;;12.60;99.90;;;;;;5053120;28;20040;-84
2021/10/15 02:20:55;;;;;;;14.55;5.53;;;12.60;99.90;;;;;;5053137;28;20096;-84
2021/10/15 02:23:21;;;;;;;14.77;6.25;;;12.60;99.90;;;;;;5055011;28;20366;-84
2021/10/15 02:25:46;;;;;;;13.30;5.97;;;12.50;99.90;;;;;;5053496;28;20028;-84
2021/10/15 02:28:12;;;;;;;12.52;6.55;;;12.50;99.90;;;;;;5053715;28;20021;-84
2021/10/15 02:30:38;;;;;;;15.70;6.60;;;12.50;99.90;;;;;;5052832;28;20053;-85
2021/10/15 02:33:04;;;;;;;13.63;6.43;;;12.50;99.90;;;;;;5054780;28;20025;-84
2021/10/15 02:35:30;;;;;;;11.52;5.47;;;12.50;99.90;;;;;;5053581;28;20025;-83
2021/10/15 02:38:01;;;;;;;14.63;5.38;;;12.50;99.90;;;;;;5054966;28;20075;-83
2021/10/15 02:40:28;;;;;;;9.70;5.05;;;12.50;99.90;;;;;;5054632;28;20044;-84
2021/10/15 02:42:54;;;;;;;15.20;5.22;;;12.50;99.90;;;;;;5053487;28;20288;-85
2021/10/15 02:45:19;;;;;;;11.32;5.05;;;12.50;99.90;;;;;;5054763;28;20092;-85
2021/10/15 02:47:45;;;;;;;11.02;4.63;;;12.50;99.90;;;;;;5055318;28;20056;-84
2021/10/15 02:50:11;;;;;;;9.32;4.10;;;12.50;99.90;;;;;;5054445;28;20439;-84
2021/10/15 02:52:36;;;;;;;8.57;4.32;;;12.50;99.90;;;;;;5055078;28;20025;-84
2021/10/15 02:55:03;;;;;;;8.95;4.72;;;12.40;99.90;;;;;;5053621;28;20044;-84
2021/10/15 02:57:28;;;;;;;13.50;4.63;;;12.40;99.90;;;;;;5054851;28;20170;-84
2021/10/15 02:59:54;;;;;;;9.68;4.22;;;12.40;99.90;;;;;;5052983;28;20123;-84
2021/10/15 03:02:19;;;;;;;10.10;4.40;;;12.30;99.90;;;;;;5054113;28;20021;-84
2021/10/15 03:04:45;;;;;;;10.57;4.30;;;12.40;99.90;;;;;;5054954;28;20469;-84
2021/10/15 03:07:11;;;;;;;12.43;4.40;;;12.30;99.90;;;;;;5053452;28;20025;-84
2021/10/15 03:09:36;;;;;;;8.65;4.05;;;12.30;99.90;;;;;;5053066;28;20115;-84
2021/10/15 03:12:02;;;;;;;7.35;3.85;;;12.40;99.90;;;;;;5053692;28;20025;-85
2021/10/15 03:14:28;;;;;;;9.25;4.35;;;12.30;99.90;;;;;;5053559;28;20040;-84
2021/10/15 03:16:54;;;;;;;11.35;4.40;;;12.30;99.90;;;;;;5053622;28;20525;-85
2021/10/15 03:19:19;;;;;;;11.90;5.03;;;12.30;99.90;;;;;;5055286;28;20068;-85
2021/10/15 03:21:45;;;;;;;10.50;4.38;;;12.30;99.90;;;;;;5054203;28;20453;-84
2021/10/15 03:24:11;;;;;;;11.40;5.00;;;12.30;99.90;;;;;;5055566;28;20363;-83
2021/10/15 03:26:37;;;;;;;11.05;4.68;;;12.30;99.90;;;;;;5052529;28;20100;-83
2021/10/15 03:29:02;;;;;;;11.07;4.40;;;12.30;99.90;;;;;;5050933;28;20116;-83
2021/10/15 03:31:28;;;;;;;9.40;4.38;;;12.30;99.90;;;;;;5050743;28;20048;-84
2021/10/15 03:33:53;;;;;;;13.02;3.80;;;12.30;99.90;;;;;;5050974;28;20063;-83
2021/10/15 03:36:19;;;;;;;10.02;4.60;;;12.30;99.90;;;;;;5051257;28;20021;-83
2021/10/15 03:38:45;;;;;;;12.65;4.40;;;12.30;99.90;;;;;;5051109;28;20021;-83
2021/10/15 03:41:10;;;;;;;14.15;4.20;;;12.30;99.90;;;;;;5051912;28;20017;-83
2021/10/15 03:43:36;;;;;;;10.82;4.57;;;12.30;99.90;;;;;;5052197;28;20024;-83
2021/10/15 03:46:02;;;;;;;9.77;4.68;;;12.30;99.90;;;;;;5052267;28;20027;-83
2021/10/15 03:48:27;;;;;;;9.05;4.50;;;12.30;99.90;;;;;;5050829;28;20021;-83
2021/10/15 03:50:53;;;;;;;13.50;4.87;;;12.30;99.90;;;;;;5051991;28;20381;-84
2021/10/15 03:53:18;;;;;;;12.52;4.97;;;12.20;99.90;;;;;;5050825;28;20033;-83
2021/10/15 03:55:44;;;;;;;10.88;4.55;;;12.30;99.90;;;;;;5050941;28;20029;-83
2021/10/15 03:58:10;;;;;;;9.80;4.25;;;12.30;99.90;;;;;;5051997;28;20094;-84
2021/10/15 04:00:35;;;;;;;11.20;4.80;;;12.20;99.90;;;;;;5050454;28;20049;-83
2021/10/15 04:03:01;;;;;;;9.40;4.83;;;12.20;99.90;;;;;;5050940;28;20551;-83
2021/10/15 04:05:26;;;;;;;11.57;4.77;;;12.20;99.90;;;;;;5052344;28;20021;-84
2021/10/15 04:07:52;;;;;;;11.07;4.53;;;12.20;99.90;;;;;;5050860;28;20455;-83
2021/10/15 04:10:18;;;;;;;11.27;4.87;;;12.20;99.90;;;;;;5052246;28;20393;-83
2021/10/15 04:12:43;;;;;;;12.33;4.93;;;12.20;99.90;;;;;;5051231;28;20029;-82
2021/10/15 04:15:11;;;;;;;12.20;4.75;;;12.20;99.90;;;;;;5052468;28;20025;-83
2021/10/15 04:17:36;;;;;;;10.63;4.70;;;12.20;99.90;;;;;;5050744;28;20036;-83
2021/10/15 04:20:03;;;;;;;11.80;4.80;;;12.20;99.90;;;;;;5050390;28;20029;-83
2021/10/15 04:22:29;;;;;;;8.97;4.27;;;12.20;99.90;;;;;;5051864;28;20025;-83
2021/10/15 04:24:55;;;;;;;11.27;5.17;;;12.20;99.90;;;;;;5050651;28;20032;-83
2021/10/15 04:27:21;;;;;;;10.27;4.63;;;12.20;99.90;;;;;;5050474;28;20020;-84
2021/10/15 04:29:46;;;;;;;8.70;4.30;;;12.20;99.90;;;;;;5050102;28;20473;-83
2021/10/15 04:32:12;;;;;;;10.67;5.30;;;12.20;99.90;;;;;;5051708;28;20028;-83
2021/10/15 04:34:37;;;;;;;14.03;5.20;;;12.20;99.90;;;;;;5050539;28;20025;-83
2021/10/15 04:37:03;;;;;;;15.18;4.90;;;12.20;99.90;;;;;;5051765;28;20060;-83
2021/10/15 04:39:29;;;;;;;9.97;5.00;;;12.20;99.90;;;;;;5050276;28;20121;-83
2021/10/15 04:41:54;;;;;;;11.30;5.27;;;12.20;99.90;;;;;;5051588;28;20024;-83
2021/10/15 04:44:20;;;;;;;13.17;5.63;;;12.30;99.90;;;;;;5052905;28;20074;-83
2021/10/15 04:46:46;;;;;;;10.77;5.40;;;12.20;99.90;;;;;;5054487;28;20082;-83
2021/10/15 04:49:11;;;;;;;10.20;4.60;;;12.20;99.90;;;;;;5053570;28;20397;-83
2021/10/15 04:51:37;;;;;;;15.07;5.60;;;12.20;99.90;;;;;;5054143;28;20136;-83
2021/10/15 04:54:03;;;;;;;16.70;5.73;;;12.20;99.90;;;;;;5054131;28;20132;-83
2021/10/15 04:56:30;;;;;;;9.27;5.35;;;12.30;99.90;;;;;;5054283;28;20024;-84
2021/10/15 04:58:56;;;;;;;14.93;5.67;;;12.20;99.90;;;;;;5053655;28;20029;-83
2021/10/15 05:01:22;;;;;;;11.80;5.78;;;12.20;99.90;;;;;;5056277;28;20025;-84
2021/10/15 05:03:48;;;;;;;16.45;7.13;;;12.30;99.90;;;;;;5055529;28;20462;-84
2021/10/15 05:06:14;;;;;;;12.57;5.78;;;12.30;99.90;;;;;;5055719;28;20028;-83
2021/10/15 05:08:49;;;;;;;12.63;6.63;;;12.30;99.90;;;;;;5054748;28;20041;-83
2021/10/15 05:11:15;;;;;;;12.00;6.22;;;12.30;99.90;;;;;;5054137;28;20481;-84
2021/10/15 05:13:41;;;;;;;16.10;7.27;;;12.30;99.90;;;;;;5054066;28;20075;-84
2021/10/15 05:16:06;;;;;;;16.38;6.70;;;12.30;99.90;;;;;;5054143;28;20083;-83
2021/10/15 05:18:32;;;;;;;20.42;7.95;;;12.40;99.90;;;;;;5055222;28;20062;-83
2021/10/15 05:20:57;;;;;;;15.07;7.47;;;12.40;99.90;;;;;;5054882;28;20056;-84
2021/10/15 05:23:23;;;;;;;16.42;7.88;;;12.40;99.90;;;;;;5053718;28;20066;-83
2021/10/15 05:25:48;;;;;;;17.87;7.27;;;12.30;99.90;;;;;;5053879;28;20037;-83
2021/10/15 05:28:14;;;;;;;19.50;7.57;;;12.40;99.90;;;;;;5055000;28;20442;-83
2021/10/15 05:30:40;;;;;;;15.70;6.65;;;12.40;99.90;;;;;;5053418;28;20108;-83
2021/10/15 05:33:07;;;;;;;16.75;7.40;;;12.40;99.90;;;;;;5055250;28;20086;-83
2021/10/15 05:35:32;;;;;;;15.05;7.50;;;12.40;99.90;;;;;;5055278;28;20096;-83
2021/10/15 05:37:59;;;;;;;15.70;7.20;;;12.50;99.90;;;;;;5053938;28;20446;-84
2021/10/15 05:40:25;;;;;;;15.73;6.90;;;12.50;99.90;;;;;;5053313;28;20033;-83
2021/10/15 05:42:50;;;;;;;28.00;8.97;;;12.40;99.90;;;;;;5053522;28;20053;-83
2021/10/15 05:45:17;;;;;;;14.80;7.10;;;12.50;99.90;;;;;;5053801;28;20064;-83
2021/10/15 05:47:43;;;;;;;15.87;8.20;;;12.40;99.90;;;;;;5053468;28;20021;-84
2021/10/15 05:50:09;;;;;;;19.17;7.67;;;12.40;99.90;;;;;;5054382;28;20024;-84
2021/10/15 05:52:39;;;;;;;17.87;6.87;;;12.40;99.90;;;;;;5053278;28;20040;-83
2021/10/15 06:00:25;;;;;;;17.83;8.40;;;12.40;99.90;;;;;;5054475;28;20025;-84
2021/10/15 06:02:51;;;;;;;14.80;6.78;;;12.40;99.90;;;;;;5054893;28;20025;-84
2021/10/15 06:15:58;;;;;;;21.83;7.50;;;12.40;99.90;;;;;;5055507;28;20029;-84
2021/10/15 06:18:24;;;;;;;14.50;7.40;;;12.40;99.90;;;;;;5055986;28;20029;-84
2021/10/15 06:20:51;;;;;;;15.65;7.18;;;12.40;99.90;;;;;;5056108;28;20017;-85
2021/10/15 06:23:18;;;;;;;17.40;7.22;;;12.40;99.90;;;;;;5056225;28;20025;-84
2021/10/15 06:25:43;;;;;;;15.18;6.85;;;12.40;99.90;;;;;;5054070;28;20024;-85
2021/10/15 06:28:12;;;;;;;18.80;7.45;;;12.40;99.90;;;;;;5055304;28;20020;-84
2021/10/15 06:30:40;;;;;;;21.45;8.35;;;12.40;99.90;;;;;;5053697;28;20060;-85
2021/10/15 06:33:06;;;;;;;14.23;7.23;;;12.50;99.90;;;;;;5056316;28;20032;-84
2021/10/15 06:35:32;;;;;;;22.57;9.50;;;12.50;99.90;;;;;;5055879;28;20108;-85
2021/10/15 06:37:58;;;;;;;18.52;9.98;;;12.50;99.90;;;;;;5055582;28;20101;-84
2021/10/15 06:40:24;;;;;;;20.58;9.90;;;12.50;99.90;;;;;;5055129;28;20025;-84
2021/10/15 06:42:50;;;;;;;19.05;8.82;;;12.40;99.90;;;;;;5054268;28;20025;-85
2021/10/15 06:45:17;;;;;;;13.40;7.72;;;12.50;99.90;;;;;;5055847;28;20146;-84
2021/10/15 06:47:42;;;;;;;16.65;7.30;;;12.50;99.90;;;;;;5054525;28;20032;-84
2021/10/15 06:50:09;;;;;;;19.07;7.30;;;12.50;99.90;;;;;;5055455;28;20059;-84
2021/10/15 06:52:46;;;;;;;17.67;8.90;;;12.50;99.90;;;;;;5055848;28;20076;-84
2021/10/15 06:55:13;;;;;;;15.10;7.30;;;12.50;99.90;;;;;;5054161;28;20021;-84
2021/10/15 06:57:39;;;;;;;15.77;8.02;;;12.50;99.90;;;;;;5055680;28;20535;-85
2021/10/15 07:00:06;;;;;;;13.55;7.50;;;12.50;99.90;;;;;;5055803;28;20041;-85
2021/10/15 07:02:31;;;;;;;14.40;7.40;;;12.50;99.90;;;;;;5054999;28;20021;-84
2021/10/15 07:04:57;;;;;;;13.13;6.07;;;12.60;99.90;;;;;;5054204;28;20021;-85
2021/10/15 07:07:22;;;;;;;15.52;7.07;;;12.60;99.90;;;;;;5055680;28;20371;-84
2021/10/15 07:09:48;;;;;;;14.95;6.13;;;12.60;99.90;;;;;;5055265;28;20033;-84
2021/10/15 07:12:13;;;;;;;12.13;6.47;;;12.60;99.90;;;;;;5055665;28;20588;-84
2021/10/15 07:14:39;;;;;;;12.93;6.60;;;12.60;99.90;;;;;;5056055;28;20036;-84
2021/10/15 07:17:04;;;;;;;14.95;6.28;;;12.60;99.90;;;;;;5054305;28;20033;-85
2021/10/15 07:19:30;;;;;;;14.65;7.03;;;12.50;99.90;;;;;;5053575;28;20147;-85
2021/10/15 07:21:56;;;;;;;12.70;6.28;;;12.60;99.90;;;;;;5055413;28;20025;-84
2021/10/15 07:24:21;;;;;;;15.02;5.88;;;12.50;99.90;;;;;;5055769;28;20021;-84
2021/10/15 07:26:50;;;;;;;10.30;5.95;;;12.60;99.90;;;;;;5063633;28;20029;-84
2021/10/15 07:29:15;;;;;;;12.68;5.07;;;12.60;99.90;;;;;;5067356;28;20025;-84
2021/10/15 07:31:41;;;;;;;13.20;5.55;;;12.60;99.90;;;;;;5070136;28;20033;-84
2021/10/15 07:34:08;;;;;;;52.53;7.47;;;12.60;99.90;;;;;;5057366;28;20429;-84
2021/10/15 07:36:34;;;;;;;16.02;6.05;;;12.60;99.90;;;;;;5056403;28;20025;-85
2021/10/15 07:39:00;;;;;;;14.48;5.75;;;12.60;99.90;;;;;;5055215;28;20069;-84
2021/10/15 07:41:26;;;;;;;32.72;6.93;;;12.60;99.90;;;;;;5056050;28;20238;-84
2021/10/15 07:43:52;;;;;;;14.07;5.30;;;12.60;99.90;;;;;;5056365;28;20508;-84
2021/10/15 07:46:18;;;;;;;15.95;5.82;;;12.60;99.90;;;;;;5055510;28;20469;-85
2021/10/15 07:48:44;;;;;;;17.27;5.47;;;12.60;99.90;;;;;;5056177;28;20036;-85
2021/10/15 07:51:10;;;;;;;13.70;5.43;;;12.60;99.90;;;;;;5055121;28;20028;-85
2021/10/15 07:53:35;;;;;;;12.43;5.60;;;12.60;99.90;;;;;;5056803;28;20028;-85
2021/10/15 07:56:01;;;;;;;16.35;6.20;;;12.70;99.90;;;;;;5055338;28;20029;-85
2021/10/15 07:58:27;;;;;;;16.73;6.13;;;12.70;99.90;;;;;;5056762;28;20033;-85
2021/10/15 08:00:53;;;;;;;13.75;6.10;;;12.70;99.90;;;;;;5057889;28;20041;-85
2021/10/15 08:03:18;;;;;;;16.65;6.43;;;12.70;99.90;;;;;;5055690;28;20092;-84
2021/10/15 08:05:44;;;;;;;14.85;6.63;;;12.70;99.90;;;;;;5055108;28;20082;-85
2021/10/15 08:08:09;;;;;;;13.13;6.15;;;12.70;99.90;;;;;;5055240;28;20112;-85
2021/10/15 08:10:35;;;;;;;14.15;6.07;;;12.70;99.90;;;;;;5055074;28;20032;-84
2021/10/15 08:13:01;;;;;;;14.10;7.03;;;12.80;99.90;;;;;;5054779;28;20054;-84
2021/10/15 08:15:28;;;;;;;13.60;6.28;;;12.80;99.90;;;;;;5055102;28;20021;-85
2021/10/15 08:17:54;;;;;;;13.27;5.70;;;12.90;99.90;;;;;;5054329;28;20033;-84
2021/10/15 08:20:21;;;;;;;12.93;6.18;;;12.90;99.90;;;;;;5058413;28;20025;-85
2021/10/15 08:22:51;;;;;;;13.05;5.35;;;12.90;99.90;;;;;;5059021;28;20029;-85
2021/10/15 08:25:17;;;;;;;14.73;5.93;;;12.90;99.90;;;;;;5059096;28;20021;-84
2021/10/15 08:27:43;;;;;;;14.98;6.47;;;13.00;99.90;;;;;;5058437;28;20561;-84
2021/10/15 08:30:09;;;;;;;15.63;6.57;;;13.00;99.90;;;;;;5058896;28;20029;-84
2021/10/15 08:32:35;;;;;;;15.57;7.13;;;13.00;99.90;;;;;;5059713;28;20037;-84
2021/10/15 08:35:01;;;;;;;14.25;6.93;;;13.00;99.90;;;;;;5058868;28;20037;-85
2021/10/15 08:37:27;;;;;;;14.77;7.10;;;13.10;99.90;;;;;;5058985;28;20189;-84
2021/10/15 08:39:52;;;;;;;19.42;7.78;;;13.10;99.90;;;;;;5058092;28;20116;-84
2021/10/15 08:42:18;;;;;;;17.00;7.07;;;13.10;99.90;;;;;;5058156;28;20496;-84
2021/10/15 08:44:45;;;;;;;14.38;7.22;;;13.10;99.90;;;;;;5057120;28;20074;-85
2021/10/15 08:47:17;;;;;;;18.15;8.10;;;13.10;99.90;;;;;;5057177;28;20064;-84
2021/10/15 08:49:45;;;;;;;15.85;7.88;;;13.00;99.90;;;;;;5057873;28;20025;-85
2021/10/15 08:52:12;;;;;;;16.67;8.75;;;13.00;99.90;;;;;;5057904;28;20021;-85
2021/10/15 08:54:38;;;;;;;17.45;8.95;;;12.90;99.90;;;;;;5058083;28;20470;-84
2021/10/15 08:57:07;;;;;;;14.90;8.30;;;12.90;99.90;;;;;;5057891;28;20025;-84
2021/10/15 08:59:45;;;;;;;16.98;8.40;;;12.70;99.90;;;;;;5056834;28;20584;-85
2021/10/15 09:02:10;;;;;;;19.90;8.93;;;12.70;99.90;;;;;;5057820;28;20541;-85
2021/10/15 09:04:50;;;;;;;18.35;8.82;;;12.60;99.90;;;;;;5057743;28;20109;-85
2021/10/15 09:07:16;;;;;;;;;;;12.60;99.90;;;;;;5057829;28;20049;-84
2021/10/15 09:09:42;;;;;;;17.73;9.10;;;12.60;99.90;;;;;;5055617;28;20289;-83
2021/10/15 09:12:11;;;;;;;18.52;9.98;;;12.60;99.90;;;;;;5057468;28;20179;-84
2021/10/15 09:14:38;;;;;;;18.92;9.85;;;12.60;99.90;;;;;;5057344;28;20462;-84
2021/10/15 09:17:04;;;;;;;16.02;9.52;;;12.60;99.90;;;;;;5057137;28;20029;-84
2021/10/15 09:19:43;;;;;;;22.42;11.63;;;12.60;99.90;;;;;;5056428;28;20028;-83
2021/10/15 09:22:30;;;;;;;23.10;11.68;;;12.70;99.90;;;;;;5055941;28;20075;-84
2021/10/15 09:25:05;;;;;;;18.20;10.50;;;12.70;99.90;;;;;;5057691;28;20363;-84
2021/10/15 09:27:36;;;;;;;15.05;9.25;;;12.70;99.90;;;;;;5057450;28;20059;-84
2021/10/15 09:30:02;;;;;;;14.38;8.43;;;12.70;99.90;;;;;;5056382;28;20080;-85
2021/10/15 09:32:30;;;;;;;13.40;9.00;;;12.70;99.90;;;;;;5057442;28;20434;-84
2021/10/15 09:34:57;;;;;;;15.15;8.27;;;12.60;99.90;;;;;;5057131;28;20021;-84
2021/10/15 09:37:25;;;;;;;12.10;8.23;;;12.60;99.90;;;;;;5056999;28;20091;-84
2021/10/15 09:40:02;;;;;;;15.07;8.48;;;12.60;99.90;;;;;;5056827;28;20539;-84
2021/10/15 09:42:30;;;;;;;16.40;8.50;;;12.60;99.90;;;;;;5057088;28;20078;-84
2021/10/15 09:45:05;;;;;;;13.90;7.65;;;12.60;99.90;;;;;;5057048;28;20108;-84
2021/10/15 09:47:33;;;;;;;12.65;7.13;;;12.60;99.90;;;;;;5055568;28;20021;-84
2021/10/15 09:50:00;;;;;;;12.20;6.38;;;12.60;99.90;;;;;;5055614;28;20028;-85
2021/10/15 09:52:41;;;;;;;13.03;6.30;;;12.60;99.90;;;;;;5056779;28;20083;-84
2021/10/15 09:55:07;;;;;;;11.70;5.82;;;12.60;99.90;;;;;;5055397;28;20517;-85
2021/10/15 09:57:38;;;;;;;14.48;6.20;;;12.70;99.90;;;;;;5056922;28;20099;-84
2021/10/15 10:00:10;;;;;;;13.00;6.15;;;12.70;99.90;;;;;;5056293;28;20417;-84
2021/10/15 10:02:36;;;;;;;7.60;3.08;;;12.70;99.90;;;;;;5056357;28;20028;-84
2021/10/15 10:05:11;;;;;;;7.20;2.70;;;12.70;99.90;;;;;;5055690;28;20370;-84
2021/10/15 10:07:37;;;;;;;4.55;1.85;;;12.80;99.90;;;;;;5056607;28;20029;-84
2021/10/15 10:10:05;;;;;;;3.03;1.30;;;12.70;99.90;;;;;;5055748;28;20037;-84
2021/10/15 10:12:35;;;;;;;3.77;1.57;;;12.70;99.90;;;;;;5056214;28;20025;-84
2021/10/15 10:15:00;;;;;;;4.20;1.30;;;12.80;99.90;;;;;;5054633;28;20268;-84
2021/10/15 10:17:27;;;;;;;3.70;1.20;;;12.80;99.90;;;;;;5055890;28;20120;-84
2021/10/15 10:20:03;;;;;;;4.70;1.25;;;12.80;99.90;;;;;;5054209;28;20025;-84
2021/10/15 10:22:30;;;;;;;3.85;1.20;;;12.70;99.90;;;;;;5055169;28;20036;-84
2021/10/15 10:24:58;;;;;;;2.85;1.20;;;12.80;99.90;;;;;;5056372;28;20017;-84
2021/10/15 10:27:31;;;;;;;5.70;2.22;;;12.80;99.90;;;;;;5055995;28;20017;-84
2021/10/15 10:29:57;;;;;;;6.40;2.10;;;12.90;99.90;;;;;;5055229;28;20029;-84
2021/10/15 10:32:25;;;;;;;7.75;2.72;;;12.90;99.90;;;;;;5055989;28;20025;-85
2021/10/15 10:34:51;;;;;;;9.43;2.60;;;12.90;99.90;;;;;;5054594;28;20029;-84
2021/10/15 10:37:19;;;;;;;9.57;2.70;;;13.00;99.90;;;;;;5055874;28;20478;-84
2021/10/15 10:39:45;;;;;;;7.82;3.03;;;13.00;99.90;;;;;;5055222;28;20052;-84
2021/10/15 10:42:24;;;;;;;6.15;2.67;;;13.00;99.90;;;;;;5054796;28;20025;-84
2021/10/15 10:44:49;;;;;;;9.65;2.03;;;13.10;99.90;;;;;;5055660;28;20539;-84
2021/10/15 10:47:20;;;;;;;4.97;1.67;;;13.10;99.90;;;;;;5054243;28;20033;-84
2021/10/15 10:50:09;;;;;;;9.05;1.88;;;13.20;99.90;;;;;;5054090;28;20036;-84
2021/10/15 10:52:45;;;;;;;6.50;1.38;;;13.20;99.90;;;;;;5055896;28;20073;-84
2021/10/15 10:55:30;;;;;;;5.55;1.55;;;13.20;99.90;;;;;;5054854;28;20032;-84
2021/10/15 10:57:56;;;;;;;6.00;1.75;;;13.20;99.90;;;;;;5056115;28;20036;-84
2021/10/15 11:00:24;;;;;;;5.78;1.60;;;13.20;99.90;;;;;;5053620;28;20024;-85
2021/10/15 11:02:58;;;;;;;5.78;1.70;;;13.20;99.90;;;;;;5055821;28;20028;-84
2021/10/15 11:05:33;;;;;;;5.05;1.60;;;13.20;99.90;;;;;;5055994;28;20504;-84
2021/10/15 11:08:24;;;;;;;5.32;1.33;;;13.10;99.90;;;;;;5054823;28;20025;-85
2021/10/15 11:11:09;;;;;;;5.75;1.60;;;13.10;99.90;;;;;;5056103;28;20024;-85
2021/10/15 11:13:37;;;;;;;4.25;1.20;;;13.20;99.90;;;;;;5056948;28;20085;-85
2021/10/15 11:16:18;;;;;;;6.30;2.03;;;13.30;99.90;;;;;;5055388;28;20053;-84
2021/10/15 11:18:44;;;;;;;5.80;1.30;;;13.30;99.90;;;;;;5054829;28;20033;-84
2021/10/15 11:21:11;;;;;;;5.68;1.90;;;13.30;99.90;;;;;;5056000;28;20055;-84
2021/10/15 11:23:39;;;;;;;9.68;1.85;;;13.40;99.90;;;;;;5056480;28;20032;-85
2021/10/15 11:26:05;;;;;;;11.43;3.22;;;13.40;99.90;;;;;;5056232;28;20080;-84
2021/10/15 11:28:31;;;;;;;8.32;2.17;;;13.40;99.90;;;;;;5056216;28;20440;-84
2021/10/15 11:30:58;;;;;;;7.45;2.33;;;13.40;99.90;;;;;;5056326;28;20085;-84
2021/10/15 11:33:26;;;;;;;10.18;2.38;;;13.40;99.90;;;;;;5057348;28;20553;-84
2021/10/15 11:35:53;;;;;;;9.40;2.13;;;13.40;99.90;;;;;;5057505;28;20017;-85
2021/10/15 11:38:25;;;;;;;7.85;1.90;;;13.50;99.90;;;;;;5057537;28;20016;-84
2021/10/15 11:41:07;;;;;;;9.23;1.83;;;13.50;99.90;;;;;;5056974;28;20043;-85
2021/10/15 11:43:37;;;;;;;8.45;1.83;;;13.50;99.90;;;;;;5058247;28;20021;-83
2021/10/15 11:46:10;;;;;;;9.13;1.70;;;13.60;99.90;;;;;;5062588;28;20073;-84
2021/10/15 11:48:40;;;;;;;7.75;1.73;;;13.70;99.90;;;;;;5062056;28;20052;-84
2021/10/15 11:51:26;;;;;;;10.88;2.20;;;13.60;99.90;;;;;;5061075;28;20373;-84
2021/10/15 11:54:00;;;;;;;9.13;2.47;;;13.60;99.90;;;;;;5063695;28;20025;-84
2021/10/15 11:56:32;;;;;;;7.25;1.08;;;13.60;99.90;;;;;;5060739;28;20476;-85
2021/10/15 11:59:00;;;;;;;9.93;1.58;;;13.50;99.90;;;;;;5061629;28;20025;-85
2021/10/15 12:01:32;;;;;;;5.30;1.25;;;13.50;99.90;;;;;;5061291;28;20024;-84
2021/10/15 12:04:03;;;;;;;5.65;1.40;;;13.50;99.90;;;;;;5061584;28;20041;-84
2021/10/15 12:06:32;;;;;;;8.20;1.80;;;13.40;99.90;;;;;;5061801;28;20025;-84
2021/10/15 12:09:03;;;;;;;7.78;1.95;;;13.40;99.90;;;;;;5076560;23;20186;-83
2021/10/15 12:11:54;;;;;;;5.82;1.42;;;13.40;99.90;;;;;;5053639;28;20566;-83
2021/10/15 12:14:29;;;;;;;8.05;1.42;;;13.40;99.90;;;;;;5053938;28;20025;-83
2021/10/15 12:16:59;;;;;;;6.35;1.10;;;13.40;99.90;;;;;;5053367;28;20052;-83
2021/10/15 12:19:33;;;;;;;7.30;1.50;;;13.50;99.90;;;;;;5054467;28;20033;-83
2021/10/15 12:22:18;;;;;;;6.53;1.88;;;13.50;99.90;;;;;;5055469;28;20497;-83
2021/10/15 12:24:47;;;;;;;9.15;1.65;;;13.50;99.90;;;;;;5054176;28;20040;-83
2021/10/15 12:27:39;;;;;;;7.57;1.58;;;13.60;99.90;;;;;;5053595;28;20107;-83
2021/10/15 12:30:25;;;;;;;6.57;1.48;;;13.60;99.90;;;;;;5053578;28;20202;-83
2021/10/15 12:32:52;;;;;;;7.25;1.70;;;13.70;99.90;;;;;;5054963;28;20029;-83
2021/10/15 12:35:22;;;;;;;7.30;1.70;;;13.70;99.90;;;;;;5053763;28;20481;-83
2021/10/15 12:37:50;;;;;;;;;;;13.80;99.90;;;;;;5055708;28;20068;-83
2021/10/15 12:40:16;;;;;;;8.57;1.70;;;13.80;99.50;;;;;;5053563;28;19908;-83
2021/10/15 12:42:44;;;;;;;5.75;1.70;;;13.80;99.40;;;;;;5055311;28;20504;-84
2021/10/15 12:45:13;;;;;;;11.43;2.00;;;13.80;99.50;;;;;;5054052;28;20017;-83
2021/10/15 12:47:40;;;;;;;9.10;2.10;;;13.90;99.70;;;;;;5053476;28;20021;-83
2021/10/15 12:50:11;;;;;;;6.38;1.85;;;13.80;99.70;;;;;;5054838;28;20051;-83
2021/10/15 12:52:42;;;;;;;7.07;1.35;;;13.90;99.60;;;;;;5053715;28;20056;-83
2021/10/15 12:55:16;;;;;;;9.07;1.60;;;13.90;99.10;;;;;;5053602;28;20041;-83
2021/10/15 12:57:42;;;;;;;9.48;1.73;;;14.00;98.90;;;;;;5054622;28;20021;-83
2021/10/15 13:00:19;;;;;;;9.55;1.60;;;14.00;99.00;;;;;;5054188;28;20025;-83